Time;durP1;ratioP1;P1;durP2;ratioP2;P2;SDS_P1;SDS_P2;PMS_P1;PMS_P2;Temp;Humidity;BMP_temperature;BMP_pressure;BME280_temperature;BME280_humidity;BME280_pressure;Samples;Min_cycle;Max_cycle;Signal;HPM_P1;HPM_P2
2021/07/07 00:00:58;;;;;;;13.03;10.90;;;;;;;14.88;98.89;93306.39;1775494;80;21058;-78
2021/07/07 00:03:28;;;;;;;14.28;10.95;;;;;;;14.90;98.46;93311.63;1775338;80;21101;-79
2021/07/07 00:05:55;;;;;;;11.93;10.35;;;;;;;14.86;97.98;93313.67;1774540;80;21116;-80
2021/07/07 00:08:24;;;;;;;12.07;10.15;;;;;;;14.80;98.12;93309.87;1775769;80;21022;-82
2021/07/07 00:10:50;;;;;;;10.72;9.63;;;;;;;14.75;98.19;93305.69;1700539;83;21083;-82
2021/07/07 00:13:17;;;;;;;11.12;9.85;;;;;;;14.71;98.55;93305.59;1799552;79;21007;-79
2021/07/07 00:15:45;;;;;;;12.13;10.00;;;;;;;14.72;99.10;93305.76;1803894;79;21283;-81
2021/07/07 00:18:14;;;;;;;14.90;9.75;;;;;;;14.76;98.91;93305.85;1794465;79;21057;-83
2021/07/07 00:20:54;;;;;;;12.13;8.50;;;;;;;14.74;98.08;93316.47;1750166;80;21966;-82
2021/07/07 00:23:23;;;;;;;11.85;8.63;;;;;;;14.66;98.02;93315.66;1777026;80;21070;-79
2021/07/07 00:25:49;;;;;;;10.25;9.25;;;;;;;14.54;98.45;93315.70;1776509;80;21050;-79
2021/07/07 00:28:15;;;;;;;14.35;9.65;;;;;;;14.49;99.10;93321.08;1775580;80;21074;-82
2021/07/07 00:30:42;;;;;;;10.40;9.30;;;;;;;14.51;99.50;93320.05;1776991;80;21030;-84
2021/07/07 00:33:08;;;;;;;11.60;9.10;;;;;;;14.56;99.50;93316.83;1775522;80;21486;-79
2021/07/07 00:35:35;;;;;;;10.15;8.80;;;;;;;14.61;99.14;93318.30;1775567;80;21035;-84
2021/07/07 00:38:01;;;;;;;12.25;9.43;;;;;;;14.60;98.78;93319.50;1776948;80;20994;-83
2021/07/07 00:40:28;;;;;;;12.93;8.48;;;;;;;14.59;98.33;93313.83;1776616;80;21025;-81
2021/07/07 00:42:55;;;;;;;9.98;8.53;;;;;;;14.55;97.63;93306.30;1776383;80;21022;-78
2021/07/07 00:45:22;;;;;;;10.95;9.78;;;;;;;14.49;97.43;93309.34;1750443;80;21394;-79
2021/07/07 00:47:49;;;;;;;10.75;9.50;;;;;;;14.36;97.93;93302.35;1776855;80;21030;-80
2021/07/07 00:50:16;;;;;;;13.48;10.28;;;;;;;14.32;98.86;93312.00;1776797;80;21551;-83
2021/07/07 00:52:43;;;;;;;10.25;9.00;;;;;;;14.34;99.11;93315.09;1776692;80;21045;-79
2021/07/07 00:55:14;;;;;;;11.30;9.20;;;;;;;14.33;98.66;93314.92;1776575;78;21559;-83
2021/07/07 00:57:44;;;;;;;10.08;9.08;;;;;;;14.36;98.56;93313.89;1776527;80;21109;-82
2021/07/07 01:00:17;;;;;;;13.90;8.93;;;;;;;14.36;98.18;93317.40;1776318;80;21054;-78
2021/07/07 01:02:44;;;;;;;12.03;8.85;;;;;;;14.35;98.12;93315.86;1776104;80;21077;-79
2021/07/07 01:05:13;;;;;;;10.88;9.30;;;;;;;14.33;98.27;93313.56;1776669;80;21089;-82
2021/07/07 01:07:41;;;;;;;12.68;9.50;;;;;;;14.34;97.99;93303.39;1776425;79;21085;-77
2021/07/07 01:10:11;;;;;;;10.80;8.95;;;;;;;14.38;97.44;93307.42;1776311;79;21153;-85
2021/07/07 01:12:38;;;;;;;13.90;10.35;;;;;;;14.41;96.73;93314.19;1775832;80;21058;-80
2021/07/07 01:15:07;;;;;;;12.55;10.75;;;;;;;14.40;96.61;93304.41;1775519;80;21723;-82
2021/07/07 01:17:34;;;;;;;14.03;10.05;;;;;;;14.38;96.86;93309.55;1776352;80;21344;-77
2021/07/07 01:20:06;;;;;;;12.82;10.82;;;;;;;14.33;96.89;93311.42;1777516;80;21003;-81
2021/07/07 01:22:33;;;;;;;13.13;10.95;;;;;;;14.25;97.07;93321.70;1778811;80;21864;-76
2021/07/07 01:24:59;;;;;;;12.30;10.55;;;;;;;14.17;97.77;93320.30;1779401;80;21006;-76
2021/07/07 01:27:26;;;;;;;17.95;12.85;;;;;;;14.09;98.32;93316.94;1787294;80;21002;-77
2021/07/07 01:29:53;;;;;;;19.27;13.80;;;;;;;14.04;98.74;93316.66;1785666;80;20955;-79
2021/07/07 01:32:20;;;;;;;15.38;12.73;;;;;;;14.01;98.98;93322.97;1784435;80;21053;-81
2021/07/07 01:34:47;;;;;;;16.45;10.93;;;;;;;14.03;98.61;93315.90;1783066;80;21122;-83
2021/07/07 01:37:13;;;;;;;13.98;11.08;;;;;;;14.06;98.04;93310.16;1775979;80;21061;-77
2021/07/07 01:39:41;;;;;;;11.22;9.75;;;;;;;14.03;98.00;93309.66;1778737;80;21046;-80
2021/07/07 01:42:08;;;;;;;13.25;10.78;;;;;;;13.98;98.37;93308.16;1777056;80;20971;-85
2021/07/07 01:44:34;;;;;;;11.12;9.88;;;;;;;13.93;98.83;93307.89;1775725;80;21595;-82
2021/07/07 01:47:03;;;;;;;13.10;10.25;;;;;;;13.86;99.14;93310.16;1775534;80;21471;-82
2021/07/07 01:49:30;;;;;;;11.83;10.48;;;;;;;13.83;99.58;93311.75;1776460;80;21097;-85
2021/07/07 01:51:56;;;;;;;15.58;12.58;;;;;;;13.84;100.00;93305.69;1784349;80;21594;-80
2021/07/07 01:54:23;;;;;;;17.65;11.97;;;;;;;13.86;100.00;93300.59;1783098;80;21136;-79
2021/07/07 01:56:50;;;;;;;16.35;11.40;;;;;;;13.92;99.83;93302.25;1784241;80;21042;-83
2021/07/07 01:59:16;;;;;;;18.65;10.18;;;;;;;13.93;98.80;93301.06;1785185;80;22036;-82
2021/07/07 02:01:42;;;;;;;10.35;9.13;;;;;;;13.88;98.37;93308.36;1783364;80;21080;-83
2021/07/07 02:04:09;;;;;;;12.35;9.35;;;;;;;13.78;98.73;93306.78;1784882;79;20990;-81
2021/07/07 02:06:35;;;;;;;9.28;8.28;;;;;;;13.74;99.22;93314.87;1783957;80;21551;-81
2021/07/07 02:09:05;;;;;;;10.53;9.08;;;;;;;13.66;99.64;93316.95;1784437;80;21018;-79
2021/07/07 02:11:32;;;;;;;10.72;8.73;;;;;;;13.59;100.00;93319.20;1763535;80;21078;-82
2021/07/07 02:13:59;;;;;;;9.80;8.13;;;;;;;13.56;100.00;93322.00;1775815;80;21078;-81
2021/07/07 02:16:25;;;;;;;10.40;9.30;;;;;;;13.51;99.66;93323.25;1775255;80;21081;-83
2021/07/07 02:18:52;;;;;;;10.18;8.58;;;;;;;13.50;99.70;93315.45;1776502;80;21101;-81
2021/07/07 02:21:19;;;;;;;10.68;8.98;;;;;;;13.52;100.00;93316.59;1776684;80;21082;-79
2021/07/07 02:23:47;;;;;;;9.53;8.58;;;;;;;13.55;100.00;93316.36;1776066;80;21978;-82
2021/07/07 02:26:15;;;;;;;14.33;9.13;;;;;;;13.58;100.00;93319.03;1775609;80;21089;-78
2021/07/07 02:28:41;;;;;;;11.53;10.43;;;;;;;13.60;100.00;93326.80;1776209;80;21082;-85
2021/07/07 02:31:08;;;;;;;11.00;9.63;;;;;;;13.62;100.00;93319.58;1776856;80;21611;-80
2021/07/07 02:33:35;;;;;;;12.78;9.45;;;;;;;13.62;99.08;93323.67;1776307;80;21958;-83
2021/07/07 02:36:01;;;;;;;12.78;10.32;;;;;;;13.56;98.34;93320.03;1776802;80;21800;-82
2021/07/07 02:38:29;;;;;;;13.22;8.85;;;;;;;13.48;98.27;93316.48;1775838;80;21537;-80
2021/07/07 02:40:56;;;;;;;10.18;8.45;;;;;;;13.40;98.79;93317.19;1776565;79;21025;-81
2021/07/07 02:43:22;;;;;;;9.00;8.08;;;;;;;13.36;99.57;93313.75;1776804;80;21077;-81
2021/07/07 02:45:51;;;;;;;8.83;8.03;;;;;;;13.38;100.00;93318.78;1776230;80;21691;-83
2021/07/07 02:48:17;;;;;;;9.48;8.50;;;;;;;13.36;100.00;93315.88;1775706;80;22131;-78
2021/07/07 02:50:44;;;;;;;11.40;8.40;;;;;;;13.32;99.41;93311.07;1776554;80;21070;-78
2021/07/07 02:53:12;;;;;;;9.85;8.10;;;;;;;13.26;98.73;93316.81;1776391;80;21619;-81
2021/07/07 02:55:38;;;;;;;11.12;8.33;;;;;;;13.18;99.42;93319.45;1776083;80;21034;-79
2021/07/07 02:58:05;;;;;;;14.07;8.13;;;;;;;13.13;100.00;93314.47;1775399;80;21054;-79
2021/07/07 03:00:46;;;;;;;10.80;8.10;;;;;;;13.16;100.00;93322.41;1775782;80;21452;-80
2021/07/07 03:03:17;;;;;;;18.80;9.28;;;;;;;13.17;100.00;93315.78;1776583;80;21575;-79
2021/07/07 03:05:51;;;;;;;22.25;8.65;;;;;;;13.16;100.00;93323.77;1777318;80;21026;-82
2021/07/07 03:08:19;;;;;;;11.43;8.05;;;;;;;13.19;100.00;93317.49;1775550;80;21608;-80
2021/07/07 03:10:46;;;;;;;9.10;7.75;;;;;;;13.22;100.00;93320.77;1775800;80;21010;-81
2021/07/07 03:13:13;;;;;;;13.10;9.53;;;;;;;13.26;100.00;93318.78;1775295;80;21899;-80
2021/07/07 03:15:40;;;;;;;13.38;8.28;;;;;;;13.26;100.00;93319.55;1776452;80;21042;-78
2021/07/07 03:18:06;;;;;;;12.60;7.92;;;;;;;13.24;100.00;93320.56;1775827;80;21085;-82
2021/07/07 03:20:33;;;;;;;8.88;8.00;;;;;;;13.27;100.00;93325.78;1776366;80;21640;-81
2021/07/07 03:23:00;;;;;;;10.88;7.92;;;;;;;13.23;100.00;93329.92;1775616;80;21090;-79
2021/07/07 03:25:28;;;;;;;8.50;7.70;;;;;;;13.17;100.00;93332.94;1749599;80;21144;-80
2021/07/07 03:27:55;;;;;;;8.25;7.47;;;;;;;13.17;100.00;93337.63;1775525;80;21621;-79
2021/07/07 03:30:22;;;;;;;8.28;7.33;;;;;;;13.16;100.00;93331.36;1775990;80;21050;-81
2021/07/07 03:32:48;;;;;;;8.45;7.42;;;;;;;13.18;100.00;93336.43;1775700;79;21089;-80
2021/07/07 03:35:16;;;;;;;11.65;9.05;;;;;;;13.20;100.00;93338.94;1776215;79;21034;-80
2021/07/07 03:37:42;;;;;;;10.35;9.03;;;;;;;13.19;100.00;93338.73;1779026;80;22127;-76
2021/07/07 03:40:11;;;;;;;28.67;16.90;;;;;;;13.20;100.00;93340.87;1778711;80;21046;-78
2021/07/07 03:42:40;;;;;;;36.75;20.20;;;;;;;13.20;100.00;93334.05;1778537;80;21461;-79
2021/07/07 03:45:09;;;;;;;24.57;16.07;;;;;;;13.18;100.00;93338.56;1775373;80;21691;-77
2021/07/07 03:47:36;;;;;;;15.08;10.80;;;;;;;13.17;100.00;93339.76;1776236;80;21603;-80
2021/07/07 03:50:05;;;;;;;10.55;9.48;;;;;;;13.19;100.00;93342.83;1776687;80;21154;-78
2021/07/07 03:52:32;;;;;;;12.35;9.63;;;;;;;13.23;100.00;93347.67;1776672;80;21030;-81
2021/07/07 03:55:01;;;;;;;87.97;48.75;;;;;;;13.33;100.00;93354.94;1776653;80;21029;-82
2021/07/07 03:57:30;;;;;;;56.98;33.00;;;;;;;13.44;100.00;93355.37;1776723;80;21051;-79
2021/07/07 03:59:56;;;;;;;54.95;30.77;;;;;;;13.49;100.00;93348.83;1776199;80;21090;-79
2021/07/07 04:02:22;;;;;;;26.30;15.60;;;;;;;13.53;100.00;93348.17;1776262;80;21506;-82
2021/07/07 04:04:49;;;;;;;17.95;12.93;;;;;;;13.56;100.00;93353.41;1775936;80;21030;-79
2021/07/07 04:07:15;;;;;;;18.73;10.18;;;;;;;13.49;100.00;93349.42;1775528;80;21563;-81
2021/07/07 04:09:41;;;;;;;11.88;8.93;;;;;;;13.51;100.00;93345.70;1776490;80;21452;-78
2021/07/07 04:12:08;;;;;;;11.25;8.88;;;;;;;13.58;100.00;93346.95;1774894;79;21220;-81
2021/07/07 04:14:35;;;;;;;32.85;19.32;;;;;;;13.62;100.00;93349.03;1776370;80;21531;-78
2021/07/07 04:17:02;;;;;;;117.25;56.50;;;;;;;13.69;100.00;93342.08;1776360;80;21081;-80
2021/07/07 04:19:29;;;;;;;100.85;48.78;;;;;;;13.79;100.00;93338.38;1776261;80;21034;-82
2021/07/07 04:21:55;;;;;;;68.90;30.88;;;;;;;13.82;100.00;93343.61;1775860;80;21046;-80
2021/07/07 04:24:22;;;;;;;41.63;22.22;;;;;;;13.89;100.00;93342.13;1774862;80;21521;-78
2021/07/07 04:26:50;;;;;;;40.88;21.15;;;;;;;13.96;99.85;93346.69;1774444;80;21470;-79
2021/07/07 04:29:17;;;;;;;24.57;15.95;;;;;;;14.01;99.99;93341.50;1775465;80;21050;-82
2021/07/07 04:31:44;;;;;;;51.35;27.95;;;;;;;14.22;100.00;93344.45;1775745;79;21041;-81
2021/07/07 04:34:10;;;;;;;56.98;29.60;;;;;;;14.44;100.00;93348.12;1773936;80;21587;-80
2021/07/07 04:36:37;;;;;;;20.32;13.32;;;;;;;14.58;99.49;93344.53;1775114;80;21045;-80
2021/07/07 04:39:05;;;;;;;10.72;8.65;;;;;;;14.68;98.81;93341.41;1775285;79;21469;-78
2021/07/07 04:41:31;;;;;;;8.88;7.95;;;;;;;14.77;98.11;93348.44;1774936;80;21097;-78
2021/07/07 04:43:58;;;;;;;8.70;7.80;;;;;;;14.86;97.41;93347.13;1774456;80;21032;-80
2021/07/07 04:46:24;;;;;;;7.75;6.80;;;;;;;14.96;97.69;93353.70;1774734;80;21089;-82
2021/07/07 04:48:51;;;;;;;9.20;7.20;;;;;;;15.12;97.65;93351.62;1774393;80;21438;-79
2021/07/07 04:51:17;;;;;;;13.88;7.85;;;;;;;15.24;96.87;93352.32;1774984;80;21885;-80
2021/07/07 04:53:44;;;;;;;8.00;7.20;;;;;;;15.32;96.21;93348.81;1779864;79;21066;-81
2021/07/07 04:56:11;;;;;;;9.65;7.72;;;;;;;15.40;95.93;93352.16;1775003;80;21042;-78
2021/07/07 04:58:40;;;;;;;9.68;7.12;;;;;;;15.47;96.00;93352.00;1774134;80;22214;-80
2021/07/07 05:01:06;;;;;;;7.85;6.97;;;;;;;15.58;96.02;93354.49;1774809;80;21428;-82
2021/07/07 05:03:33;;;;;;;9.55;7.55;;;;;;;15.71;95.33;93358.09;1776629;80;21749;-79
2021/07/07 05:05:59;;;;;;;9.13;8.23;;;;;;;15.84;95.24;93352.71;1775884;80;21085;-79
2021/07/07 05:08:27;;;;;;;9.33;8.30;;;;;;;15.99;94.90;93350.55;1776101;80;21053;-78
2021/07/07 05:10:54;;;;;;;8.55;7.58;;;;;;;16.14;94.43;93361.92;1775948;80;21587;-84
2021/07/07 05:13:21;;;;;;;10.43;7.53;;;;;;;16.30;93.88;93356.22;1776188;80;21105;-80
2021/07/07 05:15:47;;;;;;;11.63;7.50;;;;;;;16.48;93.77;93360.03;1776163;80;21526;-81
2021/07/07 05:18:14;;;;;;;11.75;7.75;;;;;;;16.78;93.45;93361.41;1775889;80;21097;-79
2021/07/07 05:20:43;;;;;;;11.75;8.40;;;;;;;17.11;91.91;93358.67;1776587;78;21058;-82
2021/07/07 05:23:09;;;;;;;11.68;8.28;;;;;;;17.43;90.42;93356.30;1775845;79;21109;-79
2021/07/07 05:25:38;;;;;;;8.18;6.67;;;;;;;17.72;89.52;93352.05;1774322;80;21049;-81
2021/07/07 05:28:05;;;;;;;8.23;7.35;;;;;;;18.01;87.90;93355.87;1775473;79;21136;-80
2021/07/07 05:30:32;;;;;;;7.53;6.90;;;;;;;18.24;86.80;93354.70;1766287;80;21329;-82
2021/07/07 05:33:00;;;;;;;8.55;7.08;;;;;;;18.41;85.13;93357.45;1772610;79;21027;-80
2021/07/07 05:35:27;;;;;;;10.32;7.40;;;;;;;18.64;84.34;93355.64;1783759;79;21095;-79
2021/07/07 05:37:53;;;;;;;9.45;7.50;;;;;;;19.04;83.93;93356.40;1776336;78;21026;-77
2021/07/07 05:40:21;;;;;;;9.95;8.28;;;;;;;19.46;82.15;93354.61;1795857;76;21414;-78
2021/07/07 05:42:52;;;;;;;9.73;7.83;;;;;;;19.81;80.13;93357.20;1847547;77;21043;-80
2021/07/07 05:45:25;;;;;;;11.20;8.33;;;;;;;20.06;78.82;93352.05;1788904;77;21093;-81
2021/07/07 05:47:52;;;;;;;13.13;9.95;;;;;;;20.21;78.27;93350.86;1795588;78;21268;-78
2021/07/07 05:50:21;;;;;;;9.20;8.23;;;;;;;20.26;77.30;93355.76;1805370;79;21042;-74
2021/07/07 05:52:47;;;;;;;8.80;7.55;;;;;;;20.22;76.83;93352.38;1794185;77;22344;-76
2021/07/07 05:55:15;;;;;;;11.22;8.63;;;;;;;20.19;77.38;93356.05;1811152;79;21038;-77
2021/07/07 05:57:41;;;;;;;9.68;8.03;;;;;;;20.23;78.17;93359.43;1788182;78;21160;-78
2021/07/07 06:00:11;;;;;;;9.50;7.87;;;;;;;20.38;77.35;93353.45;1775410;78;21063;-78
2021/07/07 06:02:39;;;;;;;8.38;7.58;;;;;;;20.64;76.68;93354.57;1781170;78;21067;-80
2021/07/07 06:05:07;;;;;;;10.88;7.10;;;;;;;21.03;75.14;93361.15;1775203;78;21085;-79
2021/07/07 06:07:34;;;;;;;10.23;7.70;;;;;;;21.46;72.89;93356.44;1783353;77;21136;-80
2021/07/07 06:10:03;;;;;;;10.65;8.48;;;;;;;21.77;71.31;93358.92;1839756;76;21600;-79
2021/07/07 06:12:30;;;;;;;8.20;7.35;;;;;;;21.98;70.92;93364.06;1781118;76;21073;-79
2021/07/07 06:14:56;;;;;;;8.75;7.90;;;;;;;22.15;70.01;93360.28;1774942;79;21671;-78
2021/07/07 06:17:22;;;;;;;9.25;7.22;;;;;;;22.29;69.72;93364.50;1791607;78;21488;-80
2021/07/07 06:19:49;;;;;;;7.92;6.85;;;;;;;22.40;69.48;93365.36;1789723;78;21240;-76
2021/07/07 06:22:16;;;;;;;13.28;7.62;;;;;;;22.48;69.07;93365.14;1778731;78;21011;-80
2021/07/07 06:24:42;;;;;;;8.50;7.33;;;;;;;22.60;68.98;93360.58;1775943;78;21046;-78
2021/07/07 06:27:09;;;;;;;8.58;7.62;;;;;;;22.68;68.73;93367.31;1772898;80;21572;-77
2021/07/07 06:29:35;;;;;;;10.30;7.50;;;;;;;22.70;68.25;93365.45;1772976;78;21225;-80
2021/07/07 06:32:02;;;;;;;8.63;7.83;;;;;;;22.72;67.56;93369.28;1777906;78;21163;-78
2021/07/07 06:34:29;;;;;;;9.20;7.75;;;;;;;22.74;67.87;93368.80;1765754;78;21042;-78
2021/07/07 06:36:57;;;;;;;8.23;7.42;;;;;;;22.76;67.87;93366.33;1807462;78;21077;-82
2021/07/07 06:39:24;;;;;;;8.40;7.60;;;;;;;22.71;67.76;93369.11;1804862;77;21025;-78
2021/07/07 06:41:51;;;;;;;9.30;7.37;;;;;;;22.63;67.64;93367.95;1779346;78;21106;-78
2021/07/07 06:44:17;;;;;;;8.38;7.40;;;;;;;22.54;67.80;93361.11;1780547;78;21049;-77
2021/07/07 06:46:44;;;;;;;11.35;8.08;;;;;;;22.49;68.62;93359.77;1773221;78;21081;-80
2021/07/07 06:49:10;;;;;;;9.48;8.03;;;;;;;22.49;69.15;93356.20;1749252;79;21050;-79
2021/07/07 06:51:37;;;;;;;9.70;8.45;;;;;;;22.43;69.05;93358.88;1771145;78;21056;-77
2021/07/07 06:54:04;;;;;;;8.18;7.47;;;;;;;22.40;69.64;93356.28;1787008;77;21130;-80
2021/07/07 06:56:31;;;;;;;8.03;7.20;;;;;;;22.41;69.78;93362.72;1778637;78;21121;-79
2021/07/07 06:58:57;;;;;;;8.50;6.97;;;;;;;22.43;69.63;93353.33;1783656;78;21049;-80
2021/07/07 07:01:24;;;;;;;9.43;7.35;;;;;;;22.49;69.48;93354.22;1752280;78;21685;-80
2021/07/07 07:03:51;;;;;;;9.00;7.78;;;;;;;22.52;69.17;93354.64;1778458;78;21065;-78
2021/07/07 07:06:17;;;;;;;8.83;7.72;;;;;;;22.55;69.15;93351.55;1789113;78;21489;-79
2021/07/07 07:08:46;;;;;;;8.23;7.42;;;;;;;22.61;69.64;93354.45;1779139;78;21011;-80
2021/07/07 07:11:17;;;;;;;9.73;7.50;;;;;;;22.67;69.56;93357.45;1786437;75;21044;-78
2021/07/07 07:13:45;;;;;;;7.45;6.67;;;;;;;22.69;69.66;93358.38;1844709;75;20994;-83
2021/07/07 07:16:13;;;;;;;9.73;7.22;;;;;;;22.67;69.44;93350.52;1784478;77;21015;-79
2021/07/07 07:18:40;;;;;;;7.55;6.85;;;;;;;22.68;69.74;93352.67;1780725;77;21085;-78
2021/07/07 07:21:06;;;;;;;7.35;6.70;;;;;;;22.69;70.43;93354.98;1807861;77;20914;-80
2021/07/07 07:23:34;;;;;;;9.28;7.85;;;;;;;22.74;70.87;93354.31;1793254;77;20987;-80
2021/07/07 07:26:00;;;;;;;7.80;7.05;;;;;;;22.82;70.90;93351.17;1770084;78;20994;-78
2021/07/07 07:28:27;;;;;;;9.35;7.58;;;;;;;22.89;70.66;93347.41;1820596;76;21054;-79
2021/07/07 07:30:57;;;;;;;8.98;7.35;;;;;;;22.99;70.85;93348.89;1799705;77;39584;-78
2021/07/07 07:33:24;;;;;;;6.87;6.25;;;;;;;23.11;70.75;93347.70;1825637;76;21001;-82
2021/07/07 07:35:50;;;;;;;8.08;6.67;;;;;;;23.18;70.73;93351.48;1807138;77;21031;-78
2021/07/07 07:38:33;;;;;;;6.92;6.33;;;;;;;23.26;70.02;93353.39;1786849;77;21149;-80
2021/07/07 07:40:56;;;;;;;6.85;6.25;;;;;;;23.36;69.66;93356.09;1815230;77;21077;-79
2021/07/07 07:43:23;;;;;;;6.37;5.72;;;;;;;23.48;69.79;93347.45;1819298;77;21125;-81
2021/07/07 07:45:54;;;;;;;6.83;6.05;;;;;;;23.64;68.76;93343.41;1770686;77;21805;-79
2021/07/07 07:48:22;;;;;;;6.05;5.45;;;;;;;23.73;68.97;93355.83;1814706;77;21663;-81
2021/07/07 07:50:51;;;;;;;5.72;5.22;;;;;;;23.80;66.80;93359.44;1771201;78;21187;-80
2021/07/07 07:53:18;;;;;;;6.42;5.47;;;;;;;23.78;66.70;93354.38;1765521;78;21143;-80
2021/07/07 07:55:45;;;;;;;6.05;5.55;;;;;;;23.72;66.74;93358.45;1745556;78;21100;-81
2021/07/07 07:58:19;;;;;;;6.10;5.40;;;;;;;23.71;65.68;93360.33;1799431;79;21049;-79
2021/07/07 08:00:48;;;;;;;9.28;6.12;;;;;;;23.73;65.77;93359.20;1763244;79;21116;-78
2021/07/07 08:03:15;;;;;;;6.37;5.87;;;;;;;23.71;65.45;93368.66;1780219;78;21053;-80
2021/07/07 08:05:43;;;;;;;7.87;5.45;;;;;;;23.69;65.75;93366.34;1779796;78;21088;-79
2021/07/07 08:08:10;;;;;;;6.83;6.15;;;;;;;23.68;65.27;93355.73;1791610;77;21123;-81
2021/07/07 08:10:37;;;;;;;7.20;5.60;;;;;;;23.68;66.51;93362.67;1858634;76;21062;-79
2021/07/07 08:13:04;;;;;;;6.20;5.70;;;;;;;23.68;65.34;93364.82;1814316;76;21043;-78
2021/07/07 08:15:32;;;;;;;6.10;5.50;;;;;;;23.70;64.90;93364.36;1786612;78;21951;-77
2021/07/07 08:17:59;;;;;;;6.62;5.85;;;;;;;23.70;64.86;93365.75;1773631;79;21243;-81
2021/07/07 08:20:26;;;;;;;5.92;5.33;;;;;;;23.72;64.69;93368.16;1786572;78;21104;-81
2021/07/07 08:22:53;;;;;;;5.95;5.45;;;;;;;23.82;66.47;93368.06;1783101;78;21043;-81
2021/07/07 08:25:19;;;;;;;5.70;5.20;;;;;;;23.92;65.74;93371.64;1837612;76;21109;-81
2021/07/07 08:27:46;;;;;;;6.17;5.67;;;;;;;23.95;63.45;93368.50;1808755;76;21136;-78
2021/07/07 08:30:14;;;;;;;5.50;5.10;;;;;;;23.95;63.35;93368.50;1783598;78;21603;-80
2021/07/07 08:32:43;;;;;;;5.42;5.03;;;;;;;23.98;59.69;93378.65;1781983;77;22252;-81
2021/07/07 08:35:11;;;;;;;6.12;5.62;;;;;;;23.99;60.32;93374.62;1824946;77;21057;-79
2021/07/07 08:37:39;;;;;;;6.35;5.75;;;;;;;24.01;59.86;93378.31;1822776;77;21084;-78
2021/07/07 08:40:07;;;;;;;5.90;5.40;;;;;;;24.03;59.44;93391.08;1797766;77;21047;-80
2021/07/07 08:42:36;;;;;;;7.37;6.67;;;;;;;23.93;59.44;93380.11;1777381;79;21062;-78
2021/07/07 08:45:08;;;;;;;6.22;5.62;;;;;;;23.80;60.28;93384.42;1804226;77;21477;-80
2021/07/07 08:47:41;;;;;;;8.55;5.85;;;;;;;23.65;60.59;93396.28;1847982;76;20913;-79
2021/07/07 08:50:11;;;;;;;5.53;5.03;;;;;;;23.58;60.51;93392.50;1803164;79;20892;-76
2021/07/07 08:52:39;;;;;;;5.85;5.45;;;;;;;23.62;60.64;93393.70;1776883;79;20964;-79
2021/07/07 08:55:12;;;;;;;6.12;5.62;;;;;;;23.68;58.64;93398.13;1782848;78;21016;-78
2021/07/07 08:57:42;;;;;;;5.62;5.20;;;;;;;23.66;58.61;93397.86;1789764;78;21095;-77
2021/07/07 09:00:16;;;;;;;9.93;6.95;;;;;;;23.61;58.62;93401.27;1797986;75;20966;-79
2021/07/07 09:02:50;;;;;;;6.35;5.78;;;;;;;23.51;59.59;93408.17;1855740;75;21563;-78
2021/07/07 09:05:17;;;;;;;6.30;5.80;;;;;;;23.40;60.17;93401.81;1778342;79;21002;-78
2021/07/07 09:07:44;;;;;;;5.28;4.78;;;;;;;23.28;60.01;93398.67;1846279;76;20860;-77
2021/07/07 09:10:17;;;;;;;6.78;6.08;;;;;;;23.24;58.97;93400.87;1812141;76;21454;-79
2021/07/07 09:12:44;;;;;;;5.90;5.30;;;;;;;23.25;60.12;93402.42;1826590;76;21557;-79
2021/07/07 09:15:17;;;;;;;6.03;5.53;;;;;;;23.37;59.08;93400.61;1849418;76;21234;-81
2021/07/07 09:17:50;;;;;;;6.33;5.35;;;;;;;23.49;58.06;93400.31;1806991;76;21030;-80
2021/07/07 09:20:28;;;;;;;5.67;4.70;;;;;;;23.60;58.66;93401.13;1836569;76;21326;-82
2021/07/07 09:23:14;;;;;;;5.80;5.40;;;;;;;23.66;59.13;93410.35;1780662;78;21086;-80
2021/07/07 09:25:58;;;;;;;6.90;5.67;;;;;;;23.64;57.38;93407.25;1775162;79;21140;-79
2021/07/07 09:28:34;;;;;;;5.78;5.30;;;;;;;23.59;57.57;93409.94;1781431;77;21011;-77
2021/07/07 09:31:08;;;;;;;5.92;5.42;;;;;;;23.55;58.32;93412.91;1786291;78;21082;-76
2021/07/07 09:33:42;;;;;;;6.60;5.75;;;;;;;23.51;58.25;93415.11;1748898;80;21074;-79
2021/07/07 09:36:22;;;;;;;6.78;6.10;;;;;;;23.46;58.73;93415.14;1776455;78;21072;-79
2021/07/07 09:38:50;;;;;;;6.53;6.00;;;;;;;23.38;59.04;93416.01;1781027;78;21018;-77
2021/07/07 09:41:17;;;;;;;6.03;5.50;;;;;;;23.29;58.66;93419.64;1799711;78;20951;-78
2021/07/07 09:43:48;;;;;;;11.22;8.85;;;;;;;23.22;58.35;93415.23;1826685;76;21368;-79
2021/07/07 09:46:14;;;;;;;8.63;7.22;;;;;;;23.19;58.82;93412.64;1793625;76;21089;-79
2021/07/07 09:48:41;;;;;;;7.45;6.65;;;;;;;23.19;58.50;93412.64;1758207;78;21145;-79
2021/07/07 09:51:08;;;;;;;6.55;5.60;;;;;;;23.22;59.44;93410.31;1782636;78;21041;-79
2021/07/07 09:53:34;;;;;;;5.67;5.10;;;;;;;23.31;57.04;93403.27;1776949;78;21069;-78
2021/07/07 09:56:02;;;;;;;5.60;5.10;;;;;;;23.46;60.68;93409.59;1781881;78;21206;-77
2021/07/07 09:58:30;;;;;;;6.72;6.00;;;;;;;23.63;59.99;93405.72;1808954;76;21030;-78
2021/07/07 10:00:57;;;;;;;6.00;5.50;;;;;;;23.81;58.81;93405.38;1830701;76;21335;-77
2021/07/07 10:03:23;;;;;;;5.83;5.33;;;;;;;23.97;58.00;93396.56;1814106;76;20958;-78
2021/07/07 10:05:51;;;;;;;8.08;7.03;;;;;;;24.08;57.08;93402.28;1860659;76;20963;-79
2021/07/07 10:08:19;;;;;;;6.45;5.70;;;;;;;24.21;59.73;93398.55;1786455;78;20982;-77
2021/07/07 10:10:46;;;;;;;5.78;5.28;;;;;;;24.38;57.95;93403.59;1770869;79;21099;-80
2021/07/07 10:13:13;;;;;;;5.70;5.22;;;;;;;24.44;55.77;93398.26;1781579;78;21777;-77
2021/07/07 10:15:40;;;;;;;6.78;5.22;;;;;;;24.46;55.38;93401.33;1815591;78;21065;-78
2021/07/07 10:18:07;;;;;;;5.70;5.30;;;;;;;24.52;56.10;93405.55;1808696;78;21069;-78
2021/07/07 10:20:37;;;;;;;5.78;5.30;;;;;;;24.61;55.82;93406.07;1809397;77;21003;-79
2021/07/07 10:23:06;;;;;;;6.85;6.22;;;;;;;24.66;55.90;93406.75;1777766;78;20915;-76
2021/07/07 10:25:36;;;;;;;9.78;8.00;;;;;;;24.70;56.48;93405.92;1778640;80;20938;-76
2021/07/07 10:28:08;;;;;;;6.35;5.70;;;;;;;24.71;56.64;93405.45;1797237;78;20907;-80
2021/07/07 10:30:55;;;;;;;6.47;5.92;;;;;;;24.65;55.07;93403.84;1799384;78;20960;-79
2021/07/07 10:33:22;;;;;;;5.62;5.03;;;;;;;24.53;56.37;93408.50;1777652;78;21054;-77
2021/07/07 10:35:49;;;;;;;8.60;6.05;;;;;;;24.45;55.48;93410.16;1748094;80;21038;-79
2021/07/07 10:38:16;;;;;;;5.83;5.33;;;;;;;24.35;54.35;93408.09;1777392;79;22114;-78
2021/07/07 10:40:49;;;;;;;6.12;5.17;;;;;;;24.31;55.26;93409.55;1809062;77;21043;-78
2021/07/07 10:43:26;;;;;;;5.92;5.42;;;;;;;24.33;55.77;93407.80;1782137;77;21054;-80
2021/07/07 10:45:53;;;;;;;7.83;5.20;;;;;;;24.40;54.43;93408.81;1762856;77;21090;-78
2021/07/07 10:48:31;;;;;;;8.25;5.65;;;;;;;24.49;54.04;93398.84;1806894;77;21057;-80
2021/07/07 10:51:01;;;;;;;5.37;4.97;;;;;;;24.57;52.95;93396.55;1825998;77;21136;-81
2021/07/07 10:53:34;;;;;;;5.45;5.00;;;;;;;24.66;54.93;93394.24;1814811;77;21047;-77
2021/07/07 10:56:04;;;;;;;5.10;4.70;;;;;;;24.75;56.90;93390.55;1807575;77;21030;-78
2021/07/07 10:58:41;;;;;;;5.42;5.00;;;;;;;24.86;57.59;93388.69;1820239;77;21442;-82
2021/07/07 11:01:34;;;;;;;6.30;4.97;;;;;;;24.98;54.10;93391.59;1814256;77;20959;-80
2021/07/07 11:04:04;;;;;;;5.47;4.97;;;;;;;25.04;53.86;93389.62;1816768;77;21123;-80
2021/07/07 11:06:38;;;;;;;5.47;5.08;;;;;;;25.08;52.68;93390.17;1806877;77;21192;-80
2021/07/07 11:09:13;;;;;;;5.28;4.78;;;;;;;25.13;50.86;93394.45;1806494;77;21075;-76
2021/07/07 11:11:45;;;;;;;6.15;5.37;;;;;;;25.11;51.20;93391.38;1807376;77;21039;-80
2021/07/07 11:14:15;;;;;;;5.65;5.15;;;;;;;25.08;53.24;93392.33;1824472;77;21038;-83
2021/07/07 11:16:57;;;;;;;5.62;5.15;;;;;;;25.02;53.08;93394.30;1801649;77;21656;-80
2021/07/07 11:19:41;;;;;;;5.80;5.30;;;;;;;24.99;51.47;93390.34;1768866;79;21571;-82
2021/07/07 11:22:11;;;;;;;5.67;4.85;;;;;;;24.96;51.78;93390.05;1803814;79;21101;-82
2021/07/07 11:24:45;;;;;;;5.67;5.12;;;;;;;24.96;53.01;93387.27;1778974;78;21961;-77
2021/07/07 11:27:12;;;;;;;6.67;5.40;;;;;;;24.98;53.95;93386.80;1782436;79;20994;-82
2021/07/07 11:29:38;;;;;;;6.53;5.53;;;;;;;25.06;53.54;93380.94;1761261;79;21931;-81
2021/07/07 11:32:22;;;;;;;5.53;5.12;;;;;;;25.13;55.97;93368.02;1781325;78;21046;-80